createdAt,value
2023-02-27T00:03:49.858Z,4.95
2023-02-27T00:08:52.440Z,4.92
2023-02-27T00:13:55.095Z,5.06
2023-02-27T00:19:01.403Z,5.05
2023-02-27T00:24:04.219Z,4.99
2023-02-27T00:29:07.104Z,4.86
2023-02-27T00:34:09.696Z,4.86
2023-02-27T00:39:12.135Z,5.00
2023-02-27T00:44:14.646Z,5.13
2023-02-27T00:49:17.281Z,5.05
2023-02-27T00:54:21.126Z,5.04
2023-02-27T00:59:23.608Z,5.00
2023-02-27T01:04:28.398Z,4.87
2023-02-27T01:09:31.022Z,4.83
2023-02-27T01:14:34.009Z,4.78
2023-02-27T01:19:36.797Z,4.87
2023-02-27T01:24:40.887Z,4.92
2023-02-27T01:29:44.892Z,5.00
2023-02-27T01:34:48.064Z,5.07
2023-02-27T01:39:51.483Z,5.17
2023-02-27T01:45:19.114Z,5.28
2023-02-27T01:50:22.521Z,5.34
2023-02-27T01:55:43.988Z,5.40
2023-02-27T02:00:47.539Z,5.45
2023-02-27T02:05:52.401Z,5.40
2023-02-27T02:10:57.088Z,5.45
2023-02-27T02:16:10.989Z,5.43
2023-02-27T02:21:33.501Z,5.47
2023-02-27T02:26:54.425Z,5.46
2023-02-27T02:32:15.426Z,5.43
2023-02-27T02:38:17.720Z,5.40
2023-02-27T02:43:30.032Z,5.38
2023-02-27T02:48:45.258Z,5.34
2023-02-27T02:54:16.035Z,5.37
2023-02-27T02:59:30.696Z,5.42
2023-02-27T03:05:00.044Z,5.39
2023-02-27T03:10:15.755Z,5.36
2023-02-27T03:15:30.737Z,5.49
2023-02-27T03:20:42.866Z,5.59
2023-02-27T03:25:46.910Z,5.57
2023-02-27T03:30:51.884Z,5.55
2023-02-27T03:36:08.604Z,5.57
2023-02-27T03:41:33.246Z,5.70
2023-02-27T03:46:52.445Z,5.78
2023-02-27T03:51:55.292Z,5.78
2023-02-27T03:57:02.168Z,5.76
2023-02-27T04:02:05.349Z,5.68
2023-02-27T04:07:25.862Z,5.65
2023-02-27T04:12:34.115Z,5.61
2023-02-27T04:18:05.223Z,5.63
2023-02-27T04:23:25.546Z,5.67
2023-02-27T04:29:00.314Z,5.68
2023-02-27T04:34:19.073Z,5.68
2023-02-27T04:39:29.198Z,5.77
2023-02-27T04:44:38.685Z,6.09
2023-02-27T04:49:49.097Z,6.33
2023-02-27T04:55:04.695Z,6.50
2023-02-27T05:00:12.862Z,6.49
2023-02-27T05:05:22.324Z,6.69
2023-02-27T05:10:34.884Z,6.69
2023-02-27T05:15:44.384Z,7.14
2023-02-27T05:21:14.877Z,7.05
2023-02-27T05:26:39.673Z,7.20
2023-02-27T05:31:57.543Z,7.30
2023-02-27T05:37:06.136Z,7.49
2023-02-27T05:42:31.387Z,7.55
2023-02-27T05:47:41.921Z,7.69
2023-02-27T05:52:47.861Z,8.05
2023-02-27T05:58:11.051Z,8.10
2023-02-27T06:03:14.624Z,8.47
2023-02-27T06:08:17.206Z,8.44
2023-02-27T06:13:19.793Z,8.70
2023-02-27T06:18:23.291Z,8.89
2023-02-27T06:23:42.006Z,8.99
2023-02-27T06:28:44.579Z,9.20
2023-02-27T06:33:47.184Z,9.46
2023-02-27T06:38:51.327Z,9.37
2023-02-27T06:43:53.926Z,9.66
2023-02-27T06:48:56.452Z,9.82
2023-02-27T06:53:58.996Z,10.10
2023-02-27T06:59:01.392Z,10.25
2023-02-27T07:04:04.359Z,10.29
2023-02-27T07:09:07.270Z,10.38
2023-02-27T07:14:10.231Z,10.44
2023-02-27T07:19:13.075Z,10.60
2023-02-27T07:24:15.798Z,10.69
2023-02-27T07:29:18.413Z,11.04
2023-02-27T07:34:21.053Z,10.95
2023-02-27T07:39:23.623Z,10.98
2023-02-27T07:44:26.231Z,11.15
2023-02-27T07:49:28.914Z,11.30
2023-02-27T07:54:32.216Z,11.54
2023-02-27T07:59:35.787Z,11.71
2023-02-27T08:04:38.524Z,11.86
2023-02-27T08:09:41.049Z,11.79
2023-02-27T08:14:43.537Z,11.79
2023-02-27T08:19:46.041Z,11.76
2023-02-27T08:24:48.535Z,11.80
2023-02-27T08:29:50.920Z,11.84
2023-02-27T08:34:53.528Z,12.08
2023-02-27T08:39:56.069Z,12.24
2023-02-27T08:44:58.500Z,12.67
2023-02-27T08:50:01.215Z,12.60
2023-02-27T08:55:03.767Z,12.40
2023-02-27T09:00:07.775Z,12.31
2023-02-27T09:05:10.454Z,12.49
2023-02-27T09:10:13.647Z,12.62
2023-02-27T09:15:16.288Z,12.56
2023-02-27T09:20:19.132Z,12.45
2023-02-27T09:25:21.722Z,12.52
2023-02-27T09:30:24.385Z,12.84
2023-02-27T09:35:27.209Z,13.12
2023-02-27T09:40:33.435Z,13.11
2023-02-27T09:45:39.720Z,13.06
2023-02-27T09:50:49.148Z,13.13
2023-02-27T09:55:51.639Z,13.25
2023-02-27T10:00:59.654Z,13.53
2023-02-27T10:06:19.583Z,13.58
2023-02-27T10:11:32.975Z,13.37
2023-02-27T10:16:35.593Z,13.48
2023-02-27T10:21:43.239Z,13.57
2023-02-27T10:26:46.441Z,13.67
2023-02-27T10:32:09.523Z,13.66
2023-02-27T10:37:16.709Z,13.68
2023-02-27T10:42:19.810Z,13.85
2023-02-27T10:47:24.711Z,13.89
2023-02-27T10:52:27.181Z,13.84
2023-02-27T10:57:42.020Z,13.78
2023-02-27T11:02:49.353Z,13.75
2023-02-27T11:07:52.544Z,13.89
2023-02-27T11:13:18.268Z,14.04
2023-02-27T11:18:27.463Z,14.00
2023-02-27T11:23:57.222Z,13.91
2023-02-27T11:29:19.049Z,14.09
2023-02-27T11:34:32.765Z,14.22
2023-02-27T11:40:02.698Z,14.59
2023-02-27T11:46:05.317Z,15.03
2023-02-27T11:51:03.550Z,14.88
2023-02-27T11:56:17.121Z,14.83
2023-02-27T12:01:28.559Z,14.77
2023-02-27T12:06:57.650Z,14.90
2023-02-27T12:12:03.275Z,14.60
2023-02-27T12:17:20.048Z,14.59
2023-02-27T12:22:32.556Z,14.55
2023-02-27T12:27:52.748Z,14.51
2023-02-27T12:33:01.418Z,14.24
2023-02-27T12:38:07.408Z,14.19
2023-02-27T12:43:38.599Z,14.33
2023-02-27T12:48:41.077Z,14.55
2023-02-27T12:54:08.882Z,14.43
2023-02-27T12:59:45.010Z,14.23
2023-02-27T13:04:55.196Z,14.05
2023-02-27T13:10:11.764Z,13.84
2023-02-27T13:15:21.478Z,13.55
2023-02-27T13:20:36.620Z,13.21
2023-02-27T13:25:43.915Z,12.96
2023-02-27T13:31:13.503Z,12.96
2023-02-27T13:36:25.340Z,13.05
2023-02-27T13:41:28.271Z,13.01
2023-02-27T13:46:34.391Z,12.80
2023-02-27T13:51:37.580Z,12.57
2023-02-27T13:56:44.037Z,12.53
2023-02-27T14:02:12.687Z,12.49
2023-02-27T14:07:21.580Z,12.45
2023-02-27T14:12:45.380Z,12.34
2023-02-27T14:18:11.464Z,12.30
2023-02-27T14:23:16.610Z,12.25
2023-02-27T14:28:49.642Z,12.19
2023-02-27T14:33:55.922Z,12.03
2023-02-27T14:39:01.206Z,12.02
2023-02-27T14:44:04.703Z,12.04
2023-02-27T14:49:26.316Z,12.01
2023-02-27T14:54:28.765Z,11.93
2023-02-27T14:59:43.235Z,11.89
2023-02-27T15:04:46.724Z,11.85
2023-02-27T15:09:50.526Z,11.75
2023-02-27T15:15:02.753Z,11.78
2023-02-27T15:20:24.993Z,11.74
2023-02-27T15:25:33.798Z,11.72
2023-02-27T15:30:36.322Z,11.67
2023-02-27T15:35:45.304Z,11.54
2023-02-27T15:40:47.878Z,11.40
2023-02-27T15:45:51.399Z,11.19
2023-02-27T15:50:59.770Z,10.98
2023-02-27T15:56:09.771Z,10.75
2023-02-27T16:01:19.263Z,10.50
2023-02-27T16:06:35.540Z,10.46
2023-02-27T16:11:38.064Z,10.38
2023-02-27T16:16:40.749Z,10.31
2023-02-27T16:22:05.099Z,10.24
2023-02-27T16:27:33.408Z,10.13
2023-02-27T16:32:41.775Z,10.09
2023-02-27T16:37:46.221Z,10.05
2023-02-27T16:42:50.051Z,10.12
2023-02-27T16:47:55.665Z,10.07
2023-02-27T16:52:58.250Z,10.22
2023-02-27T16:58:00.844Z,10.20
2023-02-27T17:03:06.474Z,10.11
2023-02-27T17:08:10.831Z,10.01
2023-02-27T17:13:13.330Z,10.13
2023-02-27T17:18:15.890Z,10.21
2023-02-27T17:23:18.789Z,10.18
2023-02-27T17:28:22.677Z,10.21
2023-02-27T17:33:25.205Z,10.17
2023-02-27T17:38:27.714Z,10.06
2023-02-27T17:43:30.191Z,9.95
2023-02-27T17:48:32.861Z,9.91
2023-02-27T17:53:36.391Z,9.88
2023-02-27T17:58:39.139Z,9.89
2023-02-27T18:03:41.683Z,9.76
2023-02-27T18:08:44.311Z,9.72
2023-02-27T18:13:47.864Z,9.69
2023-02-27T18:18:50.898Z,9.79
2023-02-27T18:23:56.202Z,9.75
2023-02-27T18:29:08.438Z,9.70
2023-02-27T18:34:11.795Z,9.60
2023-02-27T18:39:14.968Z,9.44
2023-02-27T18:44:17.604Z,9.35
2023-02-27T18:49:20.113Z,9.28
2023-02-27T18:54:22.635Z,9.25
2023-02-27T18:59:25.292Z,9.30
2023-02-27T19:04:27.959Z,9.21
2023-02-27T19:09:33.016Z,9.18
2023-02-27T19:14:35.534Z,9.19
2023-02-27T19:19:38.215Z,9.23
2023-02-27T19:24:40.926Z,9.23
2023-02-27T19:29:43.485Z,9.29
2023-02-27T19:34:46.685Z,9.22
2023-02-27T19:39:49.317Z,9.28
2023-02-27T19:44:54.808Z,9.18
2023-02-27T19:49:57.515Z,9.15
2023-02-27T19:55:00.212Z,9.28
2023-02-27T20:00:06.405Z,9.34
2023-02-27T20:05:14.600Z,9.23
2023-02-27T20:10:17.613Z,9.22
2023-02-27T20:15:20.219Z,9.13
2023-02-27T20:20:22.849Z,9.24
2023-02-27T20:25:25.694Z,9.34
2023-02-27T20:30:28.203Z,9.49
2023-02-27T20:35:31.082Z,9.68
2023-02-27T20:40:35.182Z,9.75
2023-02-27T20:45:40.960Z,9.80
2023-02-27T20:50:43.446Z,9.94
2023-02-27T20:55:49.913Z,10.20
2023-02-27T21:00:52.614Z,10.32
2023-02-27T21:05:55.291Z,10.29
2023-02-27T21:10:57.978Z,10.17
2023-02-27T21:16:01.169Z,9.92
2023-02-27T21:21:08.965Z,9.93
2023-02-27T21:26:23.708Z,9.94
2023-02-27T21:31:29.445Z,9.78
2023-02-27T21:36:36.398Z,9.67
2023-02-27T21:41:39.477Z,9.57
2023-02-27T21:46:42.137Z,9.36
2023-02-27T21:51:45.251Z,9.25
2023-02-27T21:56:49.554Z,9.14
2023-02-27T22:01:52.094Z,9.06
2023-02-27T22:06:54.847Z,9.06
2023-02-27T22:11:57.582Z,8.98
2023-02-27T22:17:00.133Z,9.02
2023-02-27T22:22:02.716Z,9.06
2023-02-27T22:27:05.416Z,9.05
2023-02-27T22:32:07.894Z,9.12
2023-02-27T22:37:11.179Z,9.23
2023-02-27T22:42:14.560Z,9.30
2023-02-27T22:47:17.139Z,9.33
2023-02-27T22:52:19.693Z,9.36
2023-02-27T22:57:22.380Z,9.19
2023-02-27T23:02:25.411Z,9.23
2023-02-27T23:07:27.884Z,9.27
2023-02-27T23:12:30.514Z,9.38
2023-02-27T23:17:33.389Z,9.28
2023-02-27T23:22:35.918Z,9.33
2023-02-27T23:27:38.807Z,9.33
2023-02-27T23:32:44.321Z,9.03
2023-02-27T23:37:46.882Z,8.96
2023-02-27T23:42:51.907Z,8.92
2023-02-27T23:47:56.962Z,9.08
2023-02-27T23:53:01.278Z,9.27
2023-02-27T23:58:07.796Z,9.24
